VYYY/RGN METAR and TAF weather

Enter ICAO airport designator
Station Type Date Time Source
VYYY METAR 2020/06/06 00:30 UTC NOAA

VYYY 060030Z 12003KT 6000 BKN020 FEW025CB OVC100 26/26 Q1006


Station Type Date Time Source
VYYY Decoded METAR 2020/06/06 00:30 UTC NOAA

Yangon, Myanmar (VYYY) 16-46N 096-10E 15M
Jun 05, 2020 - 08:30 PM EDT / 2020.06.06 0030 UTC
Wind: from the ESE (120 degrees) at 3 MPH (3 KT):0
Visibility: 3 mile(s):0
Sky conditions: overcast
Weather: Cumulonimbus clouds observed
Temperature: 78 F (26 C)
Dew Point: 78 F (26 C)
Relative Humidity: 100%
Pressure (altimeter): 29.71 in. Hg (1006 hPa)
ob: VYYY 060030Z 12003KT 6000 BKN020 FEW025CB OVC100 26/26 Q1006
cycle: 0

Station Type Date Time Source
VYYY TAF 2020/06/05 18:39 UTC NOAA

TAF VYYY 051700Z 0518/0618 23008KT 6000 BKN018 FEW020CB BKN100
TEMPO 0518/0524 24008G18KT 4000 TSRA BKN016 FEW018CB OVC090

Example: see airport list